Spirit of St Louis Airport
KSUS : now visible

Airfield :











YOU CAN JOIN US ON...

 
LOGIN :

Register | Disclaimer

   EN    FR    IT 

 









Legend :    VFR   Marginal VFR   IFR   Intensive IFR   Very Intensive IFR
Visi :
Ceiling :
>= 8 km
>= 3000ft
5 to 8 km
1000 to 3000 ft
1500m to 5 km
500 to 1000 ft
800 to 1500m
200 to 500 ft
< 800m
< 200 ft
Symbols :   Thunderstorms  Fog  Heavy snow  Heavy precipitations  Wind > 20 kt






- Airport Elevation : 463 ft


KSUS - Spirit of St Louis

CURRENT METAR :
  • 250754Z AUTO 26006KT 8SM OVC014 01/M01 A2999 RMK AO2 SLP162 T00111006

EXPIRED METARs :
  • 250723Z AUTO 25006KT 8SM OVC014 01/00 A2999 RMK AO2 T00110000
  • 250654Z AUTO 25007KT 7SM OVC015 01/M01 A2998 RMK AO2 SLP159 T00111006
  • 250554Z AUTO 26007KT 7SM OVC015 01/00 A2998 RMK AO2 SLP158 60000 T00110000 10017 20011 400170006 53008

TAF KSUS
Valid from the 25 at 06:00 until the 26 at 06:00 UTC


250538Z 2506/2606 27008KT 6SM -SHSN BR SCT007 OVC012
FM250900 28008KT P6SM OVC010
FM251400 28010G17KT P6SM OVC012
FM260200 VRB04KT 6SM BR BKN030



MET'MAP, your aeronautical weather chart ! - Copyright ORBIFLY December 2007 - Disclaimer

ORBIFLY MET'MAP TEAM :

Programming & Development : Alexandra Zaïnal
Concept & original design : Baudouin d'Aumeries
Assistance for programming : Marc-Olivier Méhu
Technical & hardware support : Manuel Goepfert

Contact : metmap@orbifly.com




SOURCES & CREDITS :

   NOAA       Earth
Advisory